sensor_id;sensor_type;location;lat;lon;timestamp;P1;durP1;ratioP1;P2;durP2;ratioP2
72801;SDS011;61891;55.818;37.084;2022-09-09T00:06:31;7.35;;;4.72;;
72801;SDS011;61891;55.818;37.084;2022-09-09T00:09:02;6.07;;;4.63;;
72801;SDS011;61891;55.818;37.084;2022-09-09T00:11:52;7.18;;;5.28;;
72801;SDS011;61891;55.818;37.084;2022-09-09T00:17:01;7.15;;;4.75;;
72801;SDS011;61891;55.818;37.084;2022-09-09T00:19:39;7.75;;;5.30;;
72801;SDS011;61891;55.818;37.084;2022-09-09T00:24:44;6.32;;;4.03;;
72801;SDS011;61891;55.818;37.084;2022-09-09T00:27:15;9.15;;;5.10;;
72801;SDS011;61891;55.818;37.084;2022-09-09T00:30:18;8.05;;;4.70;;
72801;SDS011;61891;55.818;37.084;2022-09-09T00:32:48;6.22;;;4.75;;
72801;SDS011;61891;55.818;37.084;2022-09-09T00:35:24;7.95;;;4.97;;
72801;SDS011;61891;55.818;37.084;2022-09-09T00:37:54;6.25;;;4.57;;
72801;SDS011;61891;55.818;37.084;2022-09-09T00:40:33;8.18;;;5.00;;
72801;SDS011;61891;55.818;37.084;2022-09-09T00:54:37;6.72;;;4.18;;
72801;SDS011;61891;55.818;37.084;2022-09-09T00:59:43;6.28;;;4.10;;
72801;SDS011;61891;55.818;37.084;2022-09-09T01:08:02;8.45;;;3.72;;
72801;SDS011;61891;55.818;37.084;2022-09-09T01:10:36;5.63;;;3.60;;
72801;SDS011;61891;55.818;37.084;2022-09-09T01:13:15;7.72;;;3.72;;
72801;SDS011;61891;55.818;37.084;2022-09-09T01:15:48;4.60;;;3.33;;
72801;SDS011;61891;55.818;37.084;2022-09-09T01:18:15;5.13;;;3.83;;
72801;SDS011;61891;55.818;37.084;2022-09-09T01:27:12;5.55;;;3.60;;
72801;SDS011;61891;55.818;37.084;2022-09-09T01:29:41;6.32;;;3.40;;
72801;SDS011;61891;55.818;37.084;2022-09-09T01:35:28;4.05;;;2.78;;
72801;SDS011;61891;55.818;37.084;2022-09-09T01:37:57;5.38;;;3.20;;
72801;SDS011;61891;55.818;37.084;2022-09-09T01:40:24;5.10;;;3.40;;
72801;SDS011;61891;55.818;37.084;2022-09-09T01:42:51;5.80;;;3.55;;
72801;SDS011;61891;55.818;37.084;2022-09-09T01:45:18;4.50;;;3.10;;
72801;SDS011;61891;55.818;37.084;2022-09-09T01:47:44;4.60;;;2.70;;
72801;SDS011;61891;55.818;37.084;2022-09-09T01:50:18;4.40;;;3.15;;
72801;SDS011;61891;55.818;37.084;2022-09-09T01:52:46;4.70;;;3.03;;
72801;SDS011;61891;55.818;37.084;2022-09-09T01:55:18;3.38;;;2.78;;
72801;SDS011;61891;55.818;37.084;2022-09-09T02:00:32;3.95;;;2.60;;
72801;SDS011;61891;55.818;37.084;2022-09-09T02:03:05;3.67;;;2.80;;
72801;SDS011;61891;55.818;37.084;2022-09-09T02:08:46;3.47;;;2.58;;
72801;SDS011;61891;55.818;37.084;2022-09-09T02:11:19;3.58;;;2.25;;
72801;SDS011;61891;55.818;37.084;2022-09-09T02:14:16;3.90;;;2.20;;
72801;SDS011;61891;55.818;37.084;2022-09-09T02:16:52;3.00;;;2.30;;
72801;SDS011;61891;55.818;37.084;2022-09-09T02:19:32;3.30;;;2.03;;
72801;SDS011;61891;55.818;37.084;2022-09-09T02:22:13;3.08;;;2.50;;
72801;SDS011;61891;55.818;37.084;2022-09-09T02:24:42;4.00;;;2.67;;
72801;SDS011;61891;55.818;37.084;2022-09-09T02:27:16;2.58;;;1.92;;
72801;SDS011;61891;55.818;37.084;2022-09-09T02:29:44;5.10;;;3.03;;
72801;SDS011;61891;55.818;37.084;2022-09-09T02:32:14;5.20;;;2.63;;
72801;SDS011;61891;55.818;37.084;2022-09-09T02:34:43;3.58;;;2.50;;
72801;SDS011;61891;55.818;37.084;2022-09-09T02:37:17;5.00;;;2.20;;
72801;SDS011;61891;55.818;37.084;2022-09-09T02:39:49;12.32;;;6.40;;
72801;SDS011;61891;55.818;37.084;2022-09-09T02:42:18;4.38;;;2.47;;
72801;SDS011;61891;55.818;37.084;2022-09-09T02:44:45;4.55;;;2.50;;
72801;SDS011;61891;55.818;37.084;2022-09-09T02:55:39;5.30;;;2.72;;
72801;SDS011;61891;55.818;37.084;2022-09-09T02:58:12;5.43;;;2.40;;
72801;SDS011;61891;55.818;37.084;2022-09-09T03:00:52;3.10;;;2.50;;
72801;SDS011;61891;55.818;37.084;2022-09-09T03:03:19;4.70;;;2.55;;
72801;SDS011;61891;55.818;37.084;2022-09-09T03:05:48;3.65;;;2.28;;
72801;SDS011;61891;55.818;37.084;2022-09-09T03:08:14;3.20;;;2.42;;
72801;SDS011;61891;55.818;37.084;2022-09-09T03:10:41;4.00;;;2.38;;
72801;SDS011;61891;55.818;37.084;2022-09-09T03:13:07;3.35;;;2.17;;
72801;SDS011;61891;55.818;37.084;2022-09-09T03:15:37;3.10;;;2.30;;
72801;SDS011;61891;55.818;37.084;2022-09-09T03:18:04;7.90;;;2.50;;
72801;SDS011;61891;55.818;37.084;2022-09-09T03:20:30;3.75;;;2.47;;
72801;SDS011;61891;55.818;37.084;2022-09-09T03:22:56;2.85;;;2.03;;
72801;SDS011;61891;55.818;37.084;2022-09-09T03:25:24;3.20;;;2.28;;
72801;SDS011;61891;55.818;37.084;2022-09-09T03:27:52;3.30;;;2.60;;
72801;SDS011;61891;55.818;37.084;2022-09-09T03:30:24;3.03;;;2.20;;
72801;SDS011;61891;55.818;37.084;2022-09-09T03:32:53;3.00;;;2.25;;
72801;SDS011;61891;55.818;37.084;2022-09-09T03:35:21;3.55;;;2.20;;
72801;SDS011;61891;55.818;37.084;2022-09-09T03:37:47;3.22;;;2.40;;
72801;SDS011;61891;55.818;37.084;2022-09-09T03:40:14;3.63;;;2.45;;
72801;SDS011;61891;55.818;37.084;2022-09-09T03:42:42;3.70;;;2.70;;
72801;SDS011;61891;55.818;37.084;2022-09-09T03:45:09;3.47;;;2.15;;
72801;SDS011;61891;55.818;37.084;2022-09-09T03:47:39;3.42;;;2.47;;
72801;SDS011;61891;55.818;37.084;2022-09-09T03:50:06;3.55;;;2.25;;
72801;SDS011;61891;55.818;37.084;2022-09-09T03:52:36;4.32;;;2.55;;
72801;SDS011;61891;55.818;37.084;2022-09-09T03:55:04;3.20;;;2.40;;
72801;SDS011;61891;55.818;37.084;2022-09-09T03:57:31;3.75;;;2.38;;
72801;SDS011;61891;55.818;37.084;2022-09-09T04:00:01;3.13;;;2.30;;
72801;SDS011;61891;55.818;37.084;2022-09-09T04:02:42;3.60;;;2.70;;
72801;SDS011;61891;55.818;37.084;2022-09-09T04:05:11;4.10;;;2.55;;
72801;SDS011;61891;55.818;37.084;2022-09-09T04:07:39;4.28;;;2.70;;
72801;SDS011;61891;55.818;37.084;2022-09-09T04:10:05;3.42;;;2.65;;
72801;SDS011;61891;55.818;37.084;2022-09-09T04:12:32;3.47;;;2.47;;
72801;SDS011;61891;55.818;37.084;2022-09-09T04:15:00;4.68;;;2.38;;
72801;SDS011;61891;55.818;37.084;2022-09-09T04:17:29;4.60;;;2.75;;
72801;SDS011;61891;55.818;37.084;2022-09-09T04:19:55;4.07;;;3.22;;
72801;SDS011;61891;55.818;37.084;2022-09-09T04:22:22;4.75;;;2.90;;
72801;SDS011;61891;55.818;37.084;2022-09-09T04:24:48;3.33;;;2.67;;
72801;SDS011;61891;55.818;37.084;2022-09-09T04:27:16;3.47;;;2.00;;
72801;SDS011;61891;55.818;37.084;2022-09-09T04:29:42;4.88;;;2.47;;
72801;SDS011;61891;55.818;37.084;2022-09-09T04:32:07;3.20;;;2.22;;
72801;SDS011;61891;55.818;37.084;2022-09-09T04:34:33;3.53;;;2.35;;
72801;SDS011;61891;55.818;37.084;2022-09-09T04:36:59;3.13;;;2.20;;
72801;SDS011;61891;55.818;37.084;2022-09-09T04:39:26;3.53;;;2.35;;
72801;SDS011;61891;55.818;37.084;2022-09-09T04:41:52;2.60;;;2.17;;
72801;SDS011;61891;55.818;37.084;2022-09-09T04:44:20;3.20;;;2.33;;
72801;SDS011;61891;55.818;37.084;2022-09-09T04:46:47;3.85;;;2.10;;
72801;SDS011;61891;55.818;37.084;2022-09-09T04:49:13;2.95;;;2.03;;
72801;SDS011;61891;55.818;37.084;2022-09-09T04:51:39;4.80;;;2.00;;
72801;SDS011;61891;55.818;37.084;2022-09-09T04:54:04;4.05;;;2.10;;
72801;SDS011;61891;55.818;37.084;2022-09-09T04:56:31;3.47;;;2.03;;
72801;SDS011;61891;55.818;37.084;2022-09-09T04:58:59;3.13;;;2.05;;
72801;SDS011;61891;55.818;37.084;2022-09-09T05:01:40;5.13;;;1.55;;
72801;SDS011;61891;55.818;37.084;2022-09-09T05:04:06;3.72;;;1.90;;
72801;SDS011;61891;55.818;37.084;2022-09-09T05:06:33;3.17;;;2.20;;
72801;SDS011;61891;55.818;37.084;2022-09-09T05:09:00;2.92;;;2.10;;
72801;SDS011;61891;55.818;37.084;2022-09-09T05:11:30;3.17;;;2.15;;
72801;SDS011;61891;55.818;37.084;2022-09-09T05:14:17;3.80;;;1.58;;
72801;SDS011;61891;55.818;37.084;2022-09-09T05:16:45;3.80;;;1.98;;
72801;SDS011;61891;55.818;37.084;2022-09-09T05:19:12;3.05;;;1.80;;
72801;SDS011;61891;55.818;37.084;2022-09-09T05:21:47;2.20;;;1.20;;
72801;SDS011;61891;55.818;37.084;2022-09-09T05:24:16;3.15;;;1.67;;
72801;SDS011;61891;55.818;37.084;2022-09-09T05:26:44;5.78;;;1.90;;
72801;SDS011;61891;55.818;37.084;2022-09-09T05:29:10;1.42;;;1.30;;
72801;SDS011;61891;55.818;37.084;2022-09-09T05:31:36;4.57;;;1.60;;
72801;SDS011;61891;55.818;37.084;2022-09-09T05:34:07;2.60;;;1.70;;
72801;SDS011;61891;55.818;37.084;2022-09-09T05:36:33;1.98;;;1.40;;
72801;SDS011;61891;55.818;37.084;2022-09-09T05:39:00;1.63;;;1.33;;
72801;SDS011;61891;55.818;37.084;2022-09-09T05:41:27;2.45;;;1.20;;
72801;SDS011;61891;55.818;37.084;2022-09-09T05:43:56;2.55;;;1.10;;
72801;SDS011;61891;55.818;37.084;2022-09-09T05:46:24;2.72;;;1.10;;
72801;SDS011;61891;55.818;37.084;2022-09-09T05:48:52;3.90;;;1.20;;
72801;SDS011;61891;55.818;37.084;2022-09-09T05:51:25;2.25;;;1.15;;
72801;SDS011;61891;55.818;37.084;2022-09-09T05:53:55;5.47;;;1.50;;
72801;SDS011;61891;55.818;37.084;2022-09-09T05:56:25;1.38;;;1.00;;
72801;SDS011;61891;55.818;37.084;2022-09-09T05:58:54;2.65;;;1.40;;
72801;SDS011;61891;55.818;37.084;2022-09-09T06:01:25;5.38;;;1.60;;
72801;SDS011;61891;55.818;37.084;2022-09-09T06:03:54;2.05;;;1.20;;
72801;SDS011;61891;55.818;37.084;2022-09-09T06:06:23;3.28;;;1.42;;
72801;SDS011;61891;55.818;37.084;2022-09-09T06:08:53;2.45;;;1.27;;
72801;SDS011;61891;55.818;37.084;2022-09-09T06:11:24;3.05;;;0.85;;
72801;SDS011;61891;55.818;37.084;2022-09-09T06:13:51;2.17;;;1.48;;
72801;SDS011;61891;55.818;37.084;2022-09-09T06:16:20;1.40;;;1.23;;
72801;SDS011;61891;55.818;37.084;2022-09-09T06:18:49;1.63;;;1.33;;
72801;SDS011;61891;55.818;37.084;2022-09-09T06:21:20;4.60;;;1.60;;
72801;SDS011;61891;55.818;37.084;2022-09-09T06:23:47;2.10;;;1.30;;
72801;SDS011;61891;55.818;37.084;2022-09-09T06:26:15;1.17;;;1.08;;
72801;SDS011;61891;55.818;37.084;2022-09-09T06:28:44;2.83;;;1.40;;
72801;SDS011;61891;55.818;37.084;2022-09-09T06:31:15;1.85;;;0.98;;
72801;SDS011;61891;55.818;37.084;2022-09-09T06:33:53;1.20;;;0.70;;
72801;SDS011;61891;55.818;37.084;2022-09-09T06:36:26;1.42;;;1.00;;
72801;SDS011;61891;55.818;37.084;2022-09-09T06:46:47;2.13;;;1.00;;
72801;SDS011;61891;55.818;37.084;2022-09-09T06:49:14;1.75;;;1.00;;
72801;SDS011;61891;55.818;37.084;2022-09-09T06:51:40;1.92;;;1.10;;
72801;SDS011;61891;55.818;37.084;2022-09-09T06:54:11;1.60;;;1.00;;
72801;SDS011;61891;55.818;37.084;2022-09-09T06:56:44;1.55;;;1.08;;
72801;SDS011;61891;55.818;37.084;2022-09-09T06:59:18;0.63;;;0.63;;
72801;SDS011;61891;55.818;37.084;2022-09-09T07:01:45;1.67;;;1.00;;
72801;SDS011;61891;55.818;37.084;2022-09-09T07:04:13;1.15;;;1.05;;
72801;SDS011;61891;55.818;37.084;2022-09-09T07:06:42;2.15;;;1.60;;
72801;SDS011;61891;55.818;37.084;2022-09-09T07:09:12;4.00;;;0.98;;
72801;SDS011;61891;55.818;37.084;2022-09-09T07:11:43;1.83;;;1.20;;
72801;SDS011;61891;55.818;37.084;2022-09-09T07:14:14;1.30;;;1.20;;
72801;SDS011;61891;55.818;37.084;2022-09-09T07:16:45;1.10;;;0.73;;
72801;SDS011;61891;55.818;37.084;2022-09-09T07:19:13;3.35;;;1.50;;
72801;SDS011;61891;55.818;37.084;2022-09-09T07:21:40;1.13;;;1.02;;
72801;SDS011;61891;55.818;37.084;2022-09-09T07:24:08;1.23;;;0.45;;
72801;SDS011;61891;55.818;37.084;2022-09-09T07:26:37;1.23;;;1.13;;
72801;SDS011;61891;55.818;37.084;2022-09-09T07:29:04;1.83;;;1.73;;
72801;SDS011;61891;55.818;37.084;2022-09-09T07:31:32;1.45;;;1.35;;
72801;SDS011;61891;55.818;37.084;2022-09-09T07:34:01;2.70;;;0.90;;
72801;SDS011;61891;55.818;37.084;2022-09-09T07:36:28;1.67;;;1.13;;
72801;SDS011;61891;55.818;37.084;2022-09-09T07:39:02;1.00;;;1.00;;
72801;SDS011;61891;55.818;37.084;2022-09-09T07:41:31;0.70;;;0.70;;
72801;SDS011;61891;55.818;37.084;2022-09-09T07:44:07;1.17;;;0.60;;
72801;SDS011;61891;55.818;37.084;2022-09-09T07:46:36;1.35;;;0.63;;
72801;SDS011;61891;55.818;37.084;2022-09-09T07:49:04;2.25;;;0.63;;
72801;SDS011;61891;55.818;37.084;2022-09-09T07:51:34;0.50;;;0.20;;
72801;SDS011;61891;55.818;37.084;2022-09-09T07:54:02;2.15;;;0.22;;
72801;SDS011;61891;55.818;37.084;2022-09-09T07:56:32;0.70;;;0.70;;
72801;SDS011;61891;55.818;37.084;2022-09-09T07:58:58;1.30;;;0.30;;
72801;SDS011;61891;55.818;37.084;2022-09-09T08:01:33;1.00;;;0.60;;
72801;SDS011;61891;55.818;37.084;2022-09-09T08:04:00;3.38;;;1.35;;
72801;SDS011;61891;55.818;37.084;2022-09-09T08:06:29;0.88;;;0.82;;
72801;SDS011;61891;55.818;37.084;2022-09-09T08:08:58;0.57;;;0.57;;
72801;SDS011;61891;55.818;37.084;2022-09-09T08:13:51;3.60;;;0.60;;
72801;SDS011;61891;55.818;37.084;2022-09-09T08:16:23;2.65;;;0.70;;
72801;SDS011;61891;55.818;37.084;2022-09-09T08:18:52;1.25;;;0.77;;
72801;SDS011;61891;55.818;37.084;2022-09-09T08:21:23;2.33;;;0.70;;
72801;SDS011;61891;55.818;37.084;2022-09-09T08:23:54;2.88;;;0.95;;
72801;SDS011;61891;55.818;37.084;2022-09-09T08:26:25;1.38;;;0.70;;
72801;SDS011;61891;55.818;37.084;2022-09-09T08:28:55;0.65;;;0.60;;
72801;SDS011;61891;55.818;37.084;2022-09-09T08:31:28;0.95;;;0.75;;
72801;SDS011;61891;55.818;37.084;2022-09-09T08:33:56;1.30;;;0.80;;
72801;SDS011;61891;55.818;37.084;2022-09-09T08:36:25;1.27;;;0.80;;
72801;SDS011;61891;55.818;37.084;2022-09-09T08:38:53;0.57;;;0.47;;
72801;SDS011;61891;55.818;37.084;2022-09-09T08:44:01;1.85;;;0.88;;
72801;SDS011;61891;55.818;37.084;2022-09-09T08:49:37;1.83;;;0.95;;
72801;SDS011;61891;55.818;37.084;2022-09-09T08:52:14;1.40;;;0.68;;
72801;SDS011;61891;55.818;37.084;2022-09-09T08:54:44;1.45;;;0.57;;
72801;SDS011;61891;55.818;37.084;2022-09-09T08:57:14;1.25;;;0.93;;
72801;SDS011;61891;55.818;37.084;2022-09-09T08:59:47;0.88;;;0.60;;
72801;SDS011;61891;55.818;37.084;2022-09-09T09:02:24;0.47;;;0.25;;
72801;SDS011;61891;55.818;37.084;2022-09-09T09:12:54;0.68;;;0.50;;
72801;SDS011;61891;55.818;37.084;2022-09-09T09:15:26;1.52;;;0.90;;
72801;SDS011;61891;55.818;37.084;2022-09-09T09:18:03;1.60;;;1.00;;
72801;SDS011;61891;55.818;37.084;2022-09-09T09:20:52;1.77;;;1.00;;
72801;SDS011;61891;55.818;37.084;2022-09-09T09:23:24;0.70;;;0.68;;
72801;SDS011;61891;55.818;37.084;2022-09-09T09:25:56;0.95;;;0.80;;
72801;SDS011;61891;55.818;37.084;2022-09-09T09:28:27;0.93;;;0.73;;
72801;SDS011;61891;55.818;37.084;2022-09-09T09:31:09;1.05;;;0.80;;
72801;SDS011;61891;55.818;37.084;2022-09-09T09:36:17;1.13;;;1.02;;
72801;SDS011;61891;55.818;37.084;2022-09-09T09:38:55;0.80;;;0.57;;
72801;SDS011;61891;55.818;37.084;2022-09-09T09:41:40;1.27;;;1.17;;
72801;SDS011;61891;55.818;37.084;2022-09-09T09:47:12;1.52;;;0.30;;
72801;SDS011;61891;55.818;37.084;2022-09-09T09:49:39;0.60;;;0.30;;
72801;SDS011;61891;55.818;37.084;2022-09-09T09:52:06;0.70;;;0.40;;
72801;SDS011;61891;55.818;37.084;2022-09-09T09:54:39;1.77;;;0.80;;
72801;SDS011;61891;55.818;37.084;2022-09-09T09:57:11;1.02;;;0.30;;
72801;SDS011;61891;55.818;37.084;2022-09-09T09:59:40;1.17;;;0.40;;
72801;SDS011;61891;55.818;37.084;2022-09-09T10:04:38;0.52;;;0.30;;
72801;SDS011;61891;55.818;37.084;2022-09-09T10:09:57;3.42;;;0.47;;
72801;SDS011;61891;55.818;37.084;2022-09-09T10:18:13;1.08;;;0.65;;
72801;SDS011;61891;55.818;37.084;2022-09-09T10:26:39;1.27;;;0.98;;
72801;SDS011;61891;55.818;37.084;2022-09-09T10:40:34;0.75;;;0.43;;
72801;SDS011;61891;55.818;37.084;2022-09-09T10:48:47;1.02;;;0.32;;
72801;SDS011;61891;55.818;37.084;2022-09-09T10:54:14;1.05;;;0.52;;
72801;SDS011;61891;55.818;37.084;2022-09-09T10:56:44;0.60;;;0.40;;
72801;SDS011;61891;55.818;37.084;2022-09-09T10:59:22;0.57;;;0.38;;
72801;SDS011;61891;55.818;37.084;2022-09-09T11:02:01;1.05;;;0.80;;
72801;SDS011;61891;55.818;37.084;2022-09-09T11:04:53;0.50;;;0.50;;
72801;SDS011;61891;55.818;37.084;2022-09-09T11:07:44;0.45;;;0.45;;
72801;SDS011;61891;55.818;37.084;2022-09-09T11:13:13;1.25;;;0.50;;
72801;SDS011;61891;55.818;37.084;2022-09-09T11:15:53;1.75;;;0.30;;
72801;SDS011;61891;55.818;37.084;2022-09-09T11:18:26;1.45;;;0.50;;
72801;SDS011;61891;55.818;37.084;2022-09-09T11:20:57;0.60;;;0.40;;
72801;SDS011;61891;55.818;37.084;2022-09-09T11:23:48;0.70;;;0.40;;
72801;SDS011;61891;55.818;37.084;2022-09-09T11:42:23;1.30;;;0.93;;
72801;SDS011;61891;55.818;37.084;2022-09-09T11:44:50;0.80;;;0.60;;
72801;SDS011;61891;55.818;37.084;2022-09-09T11:49:54;0.80;;;0.50;;
72801;SDS011;61891;55.818;37.084;2022-09-09T11:58:05;1.55;;;0.63;;
72801;SDS011;61891;55.818;37.084;2022-09-09T12:00:45;1.38;;;0.90;;
72801;SDS011;61891;55.818;37.084;2022-09-09T12:06:13;1.30;;;0.70;;
72801;SDS011;61891;55.818;37.084;2022-09-09T12:08:44;2.38;;;0.75;;
72801;SDS011;61891;55.818;37.084;2022-09-09T12:11:23;1.20;;;0.93;;
72801;SDS011;61891;55.818;37.084;2022-09-09T12:13:52;1.20;;;0.60;;
72801;SDS011;61891;55.818;37.084;2022-09-09T12:16:35;1.10;;;1.00;;
72801;SDS011;61891;55.818;37.084;2022-09-09T12:19:13;1.00;;;0.80;;
72801;SDS011;61891;55.818;37.084;2022-09-09T12:24:25;0.90;;;0.70;;
72801;SDS011;61891;55.818;37.084;2022-09-09T12:30:02;2.65;;;0.90;;
72801;SDS011;61891;55.818;37.084;2022-09-09T12:32:34;2.35;;;0.68;;
72801;SDS011;61891;55.818;37.084;2022-09-09T12:35:14;2.72;;;0.73;;
72801;SDS011;61891;55.818;37.084;2022-09-09T12:40:29;1.23;;;0.55;;
72801;SDS011;61891;55.818;37.084;2022-09-09T12:42:57;1.45;;;1.00;;
72801;SDS011;61891;55.818;37.084;2022-09-09T12:45:28;1.70;;;1.08;;
72801;SDS011;61891;55.818;37.084;2022-09-09T12:48:00;2.60;;;2.40;;
72801;SDS011;61891;55.818;37.084;2022-09-09T12:50:28;4.40;;;1.30;;
72801;SDS011;61891;55.818;37.084;2022-09-09T12:53:01;1.42;;;1.05;;
72801;SDS011;61891;55.818;37.084;2022-09-09T12:55:32;1.05;;;1.00;;
72801;SDS011;61891;55.818;37.084;2022-09-09T12:58:01;1.67;;;1.05;;
72801;SDS011;61891;55.818;37.084;2022-09-09T13:00:32;1.48;;;1.02;;
72801;SDS011;61891;55.818;37.084;2022-09-09T13:03:03;1.30;;;1.20;;
72801;SDS011;61891;55.818;37.084;2022-09-09T13:05:42;1.35;;;0.90;;
72801;SDS011;61891;55.818;37.084;2022-09-09T13:08:11;1.40;;;1.30;;
72801;SDS011;61891;55.818;37.084;2022-09-09T13:10:47;1.58;;;1.33;;
72801;SDS011;61891;55.818;37.084;2022-09-09T13:13:26;1.38;;;1.27;;
72801;SDS011;61891;55.818;37.084;2022-09-09T13:15:56;3.67;;;0.68;;
72801;SDS011;61891;55.818;37.084;2022-09-09T13:18:24;1.05;;;0.70;;
72801;SDS011;61891;55.818;37.084;2022-09-09T13:20:55;0.77;;;0.65;;
72801;SDS011;61891;55.818;37.084;2022-09-09T13:23:24;1.23;;;0.60;;
72801;SDS011;61891;55.818;37.084;2022-09-09T13:25:57;0.73;;;0.73;;
72801;SDS011;61891;55.818;37.084;2022-09-09T13:28:28;0.82;;;0.50;;
72801;SDS011;61891;55.818;37.084;2022-09-09T13:30:56;1.33;;;1.00;;
72801;SDS011;61891;55.818;37.084;2022-09-09T13:35:56;1.10;;;0.60;;
72801;SDS011;61891;55.818;37.084;2022-09-09T13:38:24;0.85;;;0.52;;
72801;SDS011;61891;55.818;37.084;2022-09-09T13:40:54;2.10;;;1.40;;
72801;SDS011;61891;55.818;37.084;2022-09-09T13:43:30;3.17;;;1.05;;
72801;SDS011;61891;55.818;37.084;2022-09-09T13:46:03;0.80;;;0.80;;
72801;SDS011;61891;55.818;37.084;2022-09-09T13:48:31;1.98;;;1.00;;
72801;SDS011;61891;55.818;37.084;2022-09-09T13:50:58;0.50;;;0.50;;
72801;SDS011;61891;55.818;37.084;2022-09-09T13:53:30;3.08;;;1.15;;
72801;SDS011;61891;55.818;37.084;2022-09-09T13:55:57;1.20;;;1.10;;
72801;SDS011;61891;55.818;37.084;2022-09-09T13:58:23;1.30;;;1.08;;
72801;SDS011;61891;55.818;37.084;2022-09-09T14:00:51;1.55;;;1.13;;
72801;SDS011;61891;55.818;37.084;2022-09-09T14:03:18;0.95;;;0.88;;
72801;SDS011;61891;55.818;37.084;2022-09-09T14:05:44;1.60;;;1.13;;
72801;SDS011;61891;55.818;37.084;2022-09-09T14:08:15;1.40;;;1.30;;
72801;SDS011;61891;55.818;37.084;2022-09-09T14:10:47;0.63;;;0.63;;
72801;SDS011;61891;55.818;37.084;2022-09-09T14:13:15;1.65;;;0.63;;
72801;SDS011;61891;55.818;37.084;2022-09-09T14:15:41;1.45;;;0.82;;
72801;SDS011;61891;55.818;37.084;2022-09-09T14:18:09;0.70;;;0.63;;
72801;SDS011;61891;55.818;37.084;2022-09-09T14:20:38;0.90;;;0.65;;
72801;SDS011;61891;55.818;37.084;2022-09-09T14:23:04;1.80;;;1.70;;
72801;SDS011;61891;55.818;37.084;2022-09-09T14:25:30;1.15;;;0.70;;
72801;SDS011;61891;55.818;37.084;2022-09-09T14:27:56;4.18;;;0.95;;
72801;SDS011;61891;55.818;37.084;2022-09-09T14:30:22;2.70;;;0.85;;
72801;SDS011;61891;55.818;37.084;2022-09-09T14:32:48;1.42;;;0.73;;
72801;SDS011;61891;55.818;37.084;2022-09-09T14:35:13;3.15;;;0.88;;
72801;SDS011;61891;55.818;37.084;2022-09-09T14:37:39;2.47;;;1.77;;
72801;SDS011;61891;55.818;37.084;2022-09-09T14:40:05;2.70;;;1.88;;
72801;SDS011;61891;55.818;37.084;2022-09-09T14:42:35;4.50;;;2.75;;
72801;SDS011;61891;55.818;37.084;2022-09-09T14:45:01;5.45;;;2.13;;
72801;SDS011;61891;55.818;37.084;2022-09-09T14:47:30;2.55;;;1.70;;
72801;SDS011;61891;55.818;37.084;2022-09-09T14:49:55;3.45;;;2.90;;
72801;SDS011;61891;55.818;37.084;2022-09-09T14:52:21;4.72;;;1.60;;
72801;SDS011;61891;55.818;37.084;2022-09-09T14:54:47;4.15;;;2.20;;
72801;SDS011;61891;55.818;37.084;2022-09-09T14:57:12;5.45;;;2.60;;
72801;SDS011;61891;55.818;37.084;2022-09-09T14:59:38;2.67;;;2.08;;
72801;SDS011;61891;55.818;37.084;2022-09-09T15:02:04;6.25;;;2.50;;
72801;SDS011;61891;55.818;37.084;2022-09-09T15:04:30;5.75;;;2.17;;
72801;SDS011;61891;55.818;37.084;2022-09-09T15:06:56;4.63;;;1.83;;
72801;SDS011;61891;55.818;37.084;2022-09-09T15:09:22;9.07;;;5.40;;
72801;SDS011;61891;55.818;37.084;2022-09-09T15:11:48;5.80;;;2.40;;
72801;SDS011;61891;55.818;37.084;2022-09-09T15:14:14;7.13;;;2.05;;
72801;SDS011;61891;55.818;37.084;2022-09-09T15:16:40;13.05;;;2.20;;
72801;SDS011;61891;55.818;37.084;2022-09-09T15:19:06;8.82;;;1.90;;
72801;SDS011;61891;55.818;37.084;2022-09-09T15:21:33;27.30;;;8.20;;
72801;SDS011;61891;55.818;37.084;2022-09-09T15:24:00;11.05;;;2.40;;
72801;SDS011;61891;55.818;37.084;2022-09-09T15:26:26;18.40;;;2.33;;
72801;SDS011;61891;55.818;37.084;2022-09-09T15:28:53;11.27;;;3.83;;
72801;SDS011;61891;55.818;37.084;2022-09-09T15:31:20;6.00;;;2.40;;
72801;SDS011;61891;55.818;37.084;2022-09-09T15:33:51;5.38;;;1.75;;
72801;SDS011;61891;55.818;37.084;2022-09-09T15:36:19;12.05;;;2.90;;
72801;SDS011;61891;55.818;37.084;2022-09-09T15:38:50;7.85;;;3.17;;
72801;SDS011;61891;55.818;37.084;2022-09-09T15:41:16;8.30;;;2.80;;
72801;SDS011;61891;55.818;37.084;2022-09-09T15:43:52;5.45;;;2.70;;
72801;SDS011;61891;55.818;37.084;2022-09-09T15:48:58;13.25;;;2.85;;
72801;SDS011;61891;55.818;37.084;2022-09-09T15:51:31;14.05;;;2.70;;
72801;SDS011;61891;55.818;37.084;2022-09-09T15:53:58;5.60;;;2.40;;
72801;SDS011;61891;55.818;37.084;2022-09-09T15:56:28;10.48;;;2.28;;
72801;SDS011;61891;55.818;37.084;2022-09-09T15:58:58;7.85;;;3.00;;
72801;SDS011;61891;55.818;37.084;2022-09-09T16:01:25;6.82;;;2.40;;
72801;SDS011;61891;55.818;37.084;2022-09-09T16:03:52;6.68;;;2.42;;
72801;SDS011;61891;55.818;37.084;2022-09-09T16:06:19;10.95;;;2.80;;
72801;SDS011;61891;55.818;37.084;2022-09-09T16:08:47;8.52;;;3.25;;
72801;SDS011;61891;55.818;37.084;2022-09-09T16:11:21;7.80;;;4.38;;
72801;SDS011;61891;55.818;37.084;2022-09-09T16:13:50;10.75;;;3.90;;
72801;SDS011;61891;55.818;37.084;2022-09-09T16:16:17;17.05;;;8.73;;
72801;SDS011;61891;55.818;37.084;2022-09-09T16:18:48;8.25;;;3.80;;
72801;SDS011;61891;55.818;37.084;2022-09-09T16:21:59;5.50;;;2.70;;
72801;SDS011;61891;55.818;37.084;2022-09-09T16:24:08;7.97;;;3.40;;
72801;SDS011;61891;55.818;37.084;2022-09-09T16:26:36;14.05;;;3.38;;
72801;SDS011;61891;55.818;37.084;2022-09-09T16:29:04;9.55;;;3.05;;
72801;SDS011;61891;55.818;37.084;2022-09-09T16:31:31;6.45;;;2.72;;
72801;SDS011;61891;55.818;37.084;2022-09-09T16:33:57;6.22;;;4.18;;
72801;SDS011;61891;55.818;37.084;2022-09-09T16:38:54;9.60;;;4.40;;
72801;SDS011;61891;55.818;37.084;2022-09-09T16:41:22;16.73;;;5.20;;
72801;SDS011;61891;55.818;37.084;2022-09-09T16:43:53;9.40;;;5.35;;
72801;SDS011;61891;55.818;37.084;2022-09-09T16:46:20;14.88;;;6.47;;
72801;SDS011;61891;55.818;37.084;2022-09-09T16:48:47;12.82;;;7.10;;
72801;SDS011;61891;55.818;37.084;2022-09-09T16:51:18;21.00;;;9.30;;
72801;SDS011;61891;55.818;37.084;2022-09-09T16:53:45;16.55;;;9.45;;
72801;SDS011;61891;55.818;37.084;2022-09-09T16:56:13;24.63;;;10.93;;
72801;SDS011;61891;55.818;37.084;2022-09-09T16:58:41;22.33;;;9.20;;
72801;SDS011;61891;55.818;37.084;2022-09-09T17:01:11;11.07;;;9.25;;
72801;SDS011;61891;55.818;37.084;2022-09-09T17:03:39;18.40;;;8.63;;
72801;SDS011;61891;55.818;37.084;2022-09-09T17:08:38;14.73;;;8.80;;
72801;SDS011;61891;55.818;37.084;2022-09-09T17:11:13;17.60;;;8.57;;
72801;SDS011;61891;55.818;37.084;2022-09-09T17:13:41;14.60;;;8.00;;
72801;SDS011;61891;55.818;37.084;2022-09-09T17:16:11;12.57;;;6.68;;
72801;SDS011;61891;55.818;37.084;2022-09-09T17:18:38;10.82;;;7.00;;
72801;SDS011;61891;55.818;37.084;2022-09-09T17:21:06;8.60;;;4.50;;
72801;SDS011;61891;55.818;37.084;2022-09-09T17:23:37;11.15;;;7.63;;
72801;SDS011;61891;55.818;37.084;2022-09-09T17:26:03;12.80;;;8.05;;
72801;SDS011;61891;55.818;37.084;2022-09-09T17:28:33;11.77;;;7.63;;
72801;SDS011;61891;55.818;37.084;2022-09-09T17:31:00;10.65;;;7.53;;
72801;SDS011;61891;55.818;37.084;2022-09-09T17:33:28;13.50;;;7.47;;
72801;SDS011;61891;55.818;37.084;2022-09-09T17:35:58;14.70;;;8.55;;
72801;SDS011;61891;55.818;37.084;2022-09-09T17:38:27;15.13;;;8.60;;
72801;SDS011;61891;55.818;37.084;2022-09-09T17:41:03;17.38;;;9.27;;